Time;durP1;ratioP1;P1;durP2;ratioP2;P2;SDS_P1;SDS_P2;PMS_P1;PMS_P2;Temp;Humidity;BMP_temperature;BMP_pressure;BME280_temperature;BME280_humidity;BME280_pressure;Samples;Min_cycle;Max_cycle;Signal;HPM_P1;HPM_P2
2022/12/10 00:01:48;;;;;;;146.90;51.88;;;-0.20;99.90;;;;;;5016637;28;20026;-71
2022/12/10 00:04:14;;;;;;;157.55;55.63;;;-0.20;99.90;;;;;;5016454;28;20026;-71
2022/12/10 00:06:41;;;;;;;154.30;54.42;;;-0.20;99.90;;;;;;5015942;28;20068;-72
2022/12/10 00:09:11;;;;;;;140.30;53.80;;;-0.20;99.90;;;;;;5016696;28;20036;-71
2022/12/10 00:11:38;;;;;;;130.75;49.63;;;-0.20;99.90;;;;;;5016242;28;20493;-72
2022/12/10 00:14:03;;;;;;;128.18;51.53;;;-0.20;99.90;;;;;;5015851;28;20061;-72
2022/12/10 00:16:30;;;;;;;131.20;49.88;;;-0.20;99.90;;;;;;5016206;28;20072;-71
2022/12/10 00:18:56;;;;;;;132.07;51.08;;;-0.20;99.90;;;;;;5016253;28;20022;-71
2022/12/10 00:21:28;;;;;;;135.75;51.70;;;-0.20;99.90;;;;;;5016139;28;20030;-72
2022/12/10 00:23:54;;;;;;;130.02;50.70;;;-0.20;99.90;;;;;;5016150;28;20014;-71
2022/12/10 00:26:22;;;;;;;135.57;51.55;;;-0.20;99.90;;;;;;5016386;28;20030;-71
2022/12/10 00:28:49;;;;;;;129.85;48.90;;;-0.20;99.90;;;;;;5015444;28;20173;-72
2022/12/10 00:31:26;;;;;;;121.50;49.60;;;-0.20;99.90;;;;;;5015812;28;20034;-72
2022/12/10 00:33:57;;;;;;;129.45;50.70;;;-0.10;99.90;;;;;;5016330;28;20179;-71
2022/12/10 00:36:29;;;;;;;119.20;47.55;;;-0.20;99.90;;;;;;5015847;28;20069;-71
2022/12/10 00:38:54;;;;;;;126.32;50.30;;;-0.10;99.90;;;;;;5015374;28;20034;-72
2022/12/10 00:41:20;;;;;;;121.60;46.70;;;-0.20;99.90;;;;;;5007920;28;20482;-72
2022/12/10 00:43:46;;;;;;;115.70;48.08;;;-0.20;99.90;;;;;;4998322;28;20029;-71
2022/12/10 00:46:13;;;;;;;113.93;46.33;;;-0.10;99.90;;;;;;4999387;28;20026;-72
2022/12/10 00:48:39;;;;;;;127.38;48.50;;;-0.20;99.90;;;;;;4996388;28;20105;-71
2022/12/10 00:51:14;;;;;;;127.45;48.38;;;-0.20;99.90;;;;;;4995447;28;20113;-71
2022/12/10 00:53:41;;;;;;;122.32;48.28;;;-0.10;99.90;;;;;;4999151;28;20017;-72
2022/12/10 00:56:08;;;;;;;124.50;49.50;;;-0.10;99.90;;;;;;5014975;28;20033;-72
2022/12/10 00:58:35;;;;;;;136.27;50.35;;;-0.10;99.90;;;;;;5014675;28;20046;-72
2022/12/10 01:01:20;;;;;;;129.35;48.45;;;-0.10;99.90;;;;;;5015212;28;20022;-72
2022/12/10 01:03:48;;;;;;;120.15;50.05;;;-0.10;99.90;;;;;;4996195;28;20073;-72
2022/12/10 01:06:23;;;;;;;115.78;49.15;;;-0.10;99.90;;;;;;4996058;28;20030;-71
2022/12/10 01:08:50;;;;;;;114.28;46.80;;;-0.10;99.90;;;;;;4978293;28;20022;-71
2022/12/10 01:11:18;;;;;;;116.32;46.05;;;-0.10;99.90;;;;;;4995482;28;20034;-72
2022/12/10 01:13:45;;;;;;;130.70;47.30;;;-0.10;99.90;;;;;;4995312;28;20022;-72
2022/12/10 01:16:12;;;;;;;107.30;47.15;;;-0.10;99.90;;;;;;4995539;28;20041;-71
2022/12/10 01:18:38;;;;;;;115.43;45.92;;;-0.10;99.90;;;;;;4995798;28;20022;-71
2022/12/10 01:21:07;;;;;;;105.97;44.33;;;-0.20;99.90;;;;;;4995725;28;20355;-71
2022/12/10 01:23:37;;;;;;;122.93;46.53;;;-0.10;99.90;;;;;;4995704;28;20105;-71
2022/12/10 01:26:05;;;;;;;111.72;45.75;;;-0.10;99.90;;;;;;4994863;28;20120;-72
2022/12/10 01:28:33;;;;;;;116.00;46.65;;;-0.10;99.90;;;;;;5012674;28;20079;-72
2022/12/10 01:31:09;;;;;;;132.70;48.53;;;-0.10;99.90;;;;;;5015136;28;20106;-71
2022/12/10 01:33:35;;;;;;;110.72;42.50;;;-0.10;99.90;;;;;;5014506;28;20088;-72
2022/12/10 01:36:03;;;;;;;103.55;42.65;;;-0.10;99.90;;;;;;5014725;28;20391;-71
2022/12/10 01:38:29;;;;;;;111.53;46.50;;;-0.10;99.90;;;;;;5014803;28;20041;-71
2022/12/10 01:40:55;;;;;;;106.50;44.38;;;-0.10;99.90;;;;;;5014908;28;20049;-72
2022/12/10 01:43:20;;;;;;;106.45;43.50;;;-0.10;99.90;;;;;;5014669;28;20068;-71
2022/12/10 01:45:46;;;;;;;104.80;41.90;;;-0.20;99.90;;;;;;5014106;28;20080;-72
2022/12/10 01:48:11;;;;;;;103.32;42.75;;;-0.20;99.90;;;;;;5014462;28;20022;-72
2022/12/10 01:50:37;;;;;;;106.53;42.53;;;-0.20;99.90;;;;;;4996861;28;20037;-71
2022/12/10 01:53:03;;;;;;;103.18;41.58;;;-0.20;99.90;;;;;;5013977;28;20108;-72
2022/12/10 01:55:42;;;;;;;109.40;44.53;;;-0.20;99.90;;;;;;5014659;28;20025;-72
2022/12/10 01:58:08;;;;;;;114.80;45.70;;;-0.20;99.90;;;;;;5028213;28;20025;-72
2022/12/10 02:00:40;;;;;;;104.82;44.60;;;-0.20;99.90;;;;;;5034119;28;20025;-71
2022/12/10 02:03:13;;;;;;;101.18;42.05;;;-0.20;99.90;;;;;;5034091;28;20461;-72
2022/12/10 02:05:44;;;;;;;108.65;43.47;;;-0.30;99.90;;;;;;5033948;28;20034;-71
2022/12/10 02:08:46;;;;;;;115.72;44.53;;;-0.20;99.90;;;;;;5034115;28;20036;-72
2022/12/10 02:11:36;;;;;;;105.30;42.42;;;-0.20;99.90;;;;;;5052708;23;20438;-73
2022/12/10 02:14:08;;;;;;;110.28;41.22;;;-0.30;99.90;;;;;;5053522;28;20017;-73
2022/12/10 02:16:38;;;;;;;113.05;43.22;;;-0.30;99.90;;;;;;5054384;28;20073;-73
2022/12/10 02:19:41;;;;;;;108.50;44.65;;;-0.30;99.90;;;;;;5053970;28;20380;-73
2022/12/10 02:22:09;;;;;;;119.20;43.92;;;-0.30;99.90;;;;;;5054169;28;20025;-73
2022/12/10 02:24:36;;;;;;;106.95;43.05;;;-0.30;99.90;;;;;;5053885;28;20029;-73
2022/12/10 02:27:02;;;;;;;104.28;43.10;;;-0.30;99.90;;;;;;5053382;28;20048;-73
2022/12/10 02:29:28;;;;;;;109.47;44.28;;;-0.30;99.90;;;;;;5053667;28;20032;-73
2022/12/10 02:32:00;;;;;;;108.68;45.35;;;-0.30;99.90;;;;;;5035901;28;20021;-73
2022/12/10 02:34:30;;;;;;;116.55;47.05;;;-0.30;99.90;;;;;;5053230;28;20025;-73
2022/12/10 02:36:59;;;;;;;130.40;47.38;;;-0.30;99.90;;;;;;5035881;28;20029;-73
2022/12/10 02:39:30;;;;;;;121.80;45.60;;;-0.40;99.90;;;;;;5053714;28;20112;-73
2022/12/10 02:41:58;;;;;;;119.13;47.15;;;-0.30;99.90;;;;;;5052967;28;20033;-73
2022/12/10 02:44:26;;;;;;;119.55;47.15;;;-0.30;99.90;;;;;;5053525;28;20021;-73
2022/12/10 02:46:56;;;;;;;110.82;46.25;;;-0.30;99.90;;;;;;5054267;28;20025;-73
2022/12/10 02:49:23;;;;;;;114.00;47.70;;;-0.30;99.90;;;;;;5053542;28;20017;-73
2022/12/10 02:51:48;;;;;;;120.93;46.40;;;-0.30;99.90;;;;;;5053405;28;20384;-73
2022/12/10 02:54:35;;;;;;;136.93;49.03;;;-0.30;99.90;;;;;;5053584;28;20037;-73
2022/12/10 02:57:08;;;;;;;127.95;47.53;;;-0.40;99.90;;;;;;5052778;28;20111;-73
2022/12/10 03:00:16;;;;;;;125.05;47.58;;;-0.30;99.90;;;;;;5053624;28;20464;-73
2022/12/10 03:02:50;;;;;;;122.20;49.25;;;-0.30;99.90;;;;;;5053570;28;20025;-73
2022/12/10 03:05:47;;;;;;;125.25;49.05;;;-0.40;99.90;;;;;;5053559;28;20021;-73
2022/12/10 03:08:18;;;;;;;129.50;48.30;;;-0.40;99.90;;;;;;5035083;28;20051;-73
2022/12/10 03:11:01;;;;;;;121.28;48.88;;;-0.40;99.90;;;;;;5053379;28;20083;-73
2022/12/10 03:13:37;;;;;;;135.88;53.05;;;-0.40;99.90;;;;;;5053127;28;20437;-73
2022/12/10 03:16:03;;;;;;;137.82;53.08;;;-0.40;99.90;;;;;;5053226;28;20044;-73
2022/12/10 03:18:33;;;;;;;135.85;52.45;;;-0.50;99.90;;;;;;5055756;28;20036;-73
2022/12/10 03:21:03;;;;;;;123.50;50.65;;;-0.50;99.90;;;;;;5057475;28;20031;-73
2022/12/10 03:23:31;;;;;;;140.45;51.50;;;-0.50;99.90;;;;;;5057661;28;20025;-73
2022/12/10 03:25:58;;;;;;;137.30;52.53;;;-0.50;99.90;;;;;;5038826;28;20506;-73
2022/12/10 03:28:25;;;;;;;139.38;52.75;;;-0.40;99.90;;;;;;5057187;28;20074;-73
2022/12/10 03:30:53;;;;;;;140.48;52.33;;;-0.40;99.90;;;;;;5056749;28;20104;-73
2022/12/10 03:33:19;;;;;;;137.95;52.15;;;-0.40;99.90;;;;;;5057527;28;20518;-73
2022/12/10 03:35:46;;;;;;;147.85;51.63;;;-0.40;99.90;;;;;;5057076;28;20060;-73
2022/12/10 03:38:13;;;;;;;137.98;52.90;;;-0.40;99.90;;;;;;5056925;28;20103;-73
2022/12/10 03:40:39;;;;;;;139.73;51.25;;;-0.40;99.90;;;;;;5039169;28;20046;-73
2022/12/10 03:43:04;;;;;;;131.60;50.35;;;-0.40;99.90;;;;;;5056528;28;20021;-73
2022/12/10 03:45:30;;;;;;;137.05;53.25;;;-0.50;99.90;;;;;;5056906;28;20043;-73
2022/12/10 03:47:55;;;;;;;137.15;52.40;;;-0.50;99.90;;;;;;5056888;28;20120;-73
2022/12/10 03:50:21;;;;;;;141.98;52.30;;;-0.50;99.90;;;;;;5038990;28;20025;-73
2022/12/10 03:52:46;;;;;;;133.23;50.90;;;-0.60;99.90;;;;;;5038566;28;20025;-73
2022/12/10 03:55:12;;;;;;;131.10;51.92;;;-0.50;99.90;;;;;;5056068;28;20033;-73
2022/12/10 03:57:37;;;;;;;138.82;53.17;;;-0.60;99.90;;;;;;5057257;28;20395;-73
2022/12/10 04:00:05;;;;;;;140.05;52.30;;;-0.60;99.90;;;;;;5056671;28;20101;-73
2022/12/10 04:02:30;;;;;;;133.82;51.78;;;-0.60;99.90;;;;;;5056527;28;20082;-73
2022/12/10 04:04:56;;;;;;;139.07;52.40;;;-0.50;99.90;;;;;;5056093;28;20032;-73
2022/12/10 04:07:22;;;;;;;128.80;50.45;;;-0.60;99.90;;;;;;5056493;28;20504;-73
2022/12/10 04:09:47;;;;;;;118.82;49.90;;;-0.50;99.90;;;;;;5056270;28;20043;-73
2022/12/10 04:12:13;;;;;;;126.25;47.67;;;-0.50;99.90;;;;;;5038452;28;20036;-73
2022/12/10 04:17:22;;;;;;;120.40;46.28;;;-0.50;99.90;;;;;;5056668;28;20071;-73
2022/12/10 04:19:48;;;;;;;127.55;47.25;;;-0.50;99.90;;;;;;5055606;28;20430;-73
2022/12/10 04:27:41;;;;;;;123.30;46.20;;;-0.50;99.90;;;;;;5056469;28;20029;-73
2022/12/10 04:30:10;;;;;;;131.23;49.78;;;-0.50;99.90;;;;;;5054642;28;20025;-73
2022/12/10 04:32:36;;;;;;;134.13;48.90;;;-0.50;99.90;;;;;;5055498;28;20480;-73
2022/12/10 04:35:01;;;;;;;128.85;48.13;;;-0.50;99.90;;;;;;5055887;28;20036;-73
2022/12/10 04:37:28;;;;;;;111.93;47.63;;;-0.40;99.90;;;;;;5056206;28;20028;-73
2022/12/10 04:39:54;;;;;;;125.55;46.45;;;-0.40;99.90;;;;;;5056486;28;20112;-73
2022/12/10 04:42:20;;;;;;;112.97;45.08;;;-0.50;99.90;;;;;;5055833;28;20055;-74
2022/12/10 04:44:46;;;;;;;115.80;44.78;;;-0.40;99.90;;;;;;5055565;28;20045;-73
2022/12/10 04:47:12;;;;;;;122.13;46.00;;;-0.40;99.90;;;;;;5055692;28;20052;-73
2022/12/10 04:49:38;;;;;;;113.72;42.97;;;-0.40;99.90;;;;;;5055699;28;20021;-73
2022/12/10 04:52:05;;;;;;;124.20;47.50;;;-0.40;99.90;;;;;;5055702;28;20071;-73
2022/12/10 04:54:31;;;;;;;106.68;42.95;;;-0.40;99.90;;;;;;5038012;28;20427;-73
2022/12/10 04:56:56;;;;;;;107.78;45.30;;;-0.40;99.90;;;;;;5054951;28;20017;-73
2022/12/10 04:59:22;;;;;;;97.47;41.25;;;-0.40;99.90;;;;;;5055641;28;20039;-73
2022/12/10 05:01:48;;;;;;;118.03;45.90;;;-0.40;99.90;;;;;;5055415;28;20032;-73
2022/12/10 05:04:18;;;;;;;104.20;42.17;;;-0.40;99.90;;;;;;5055625;28;20017;-73
2022/12/10 05:06:44;;;;;;;102.57;42.60;;;-0.40;99.90;;;;;;5055261;28;20021;-73
2022/12/10 05:09:12;;;;;;;104.28;42.97;;;-0.40;99.90;;;;;;5054652;28;20108;-73
2022/12/10 05:11:39;;;;;;;106.95;42.42;;;-0.40;99.90;;;;;;5055345;28;20041;-73
2022/12/10 05:14:04;;;;;;;103.32;41.17;;;-0.40;99.90;;;;;;5055656;28;20056;-73
2022/12/10 05:16:32;;;;;;;101.55;41.85;;;-0.50;99.90;;;;;;5054704;28;20469;-74
2022/12/10 05:18:58;;;;;;;96.50;41.58;;;-0.40;99.90;;;;;;5055549;28;20515;-73
2022/12/10 05:24:13;;;;;;;97.72;39.13;;;-0.40;99.90;;;;;;5055826;28;20071;-73
2022/12/10 05:26:39;;;;;;;87.18;38.35;;;-0.40;99.90;;;;;;5037036;28;20032;-73
2022/12/10 05:29:05;;;;;;;91.60;42.67;;;-0.50;99.90;;;;;;5054707;28;20395;-73
2022/12/10 05:31:30;;;;;;;100.93;40.00;;;-0.40;99.90;;;;;;5036952;28;20373;-73
2022/12/10 05:33:57;;;;;;;106.38;41.80;;;-0.40;99.90;;;;;;5054903;28;20484;-73
2022/12/10 05:36:26;;;;;;;100.35;41.15;;;-0.40;99.90;;;;;;5036867;28;20112;-73
2022/12/10 05:38:53;;;;;;;95.35;41.25;;;-0.40;99.90;;;;;;5054874;28;20017;-73
2022/12/10 05:41:22;;;;;;;108.72;43.60;;;-0.40;99.90;;;;;;5054188;28;20028;-73
2022/12/10 05:43:48;;;;;;;95.95;39.50;;;-0.50;99.90;;;;;;5054358;28;20031;-73
2022/12/10 05:46:21;;;;;;;97.53;39.42;;;-0.40;99.90;;;;;;5055030;28;20108;-73
2022/12/10 05:48:47;;;;;;;100.95;42.28;;;-0.50;99.90;;;;;;5054721;28;20044;-73
2022/12/10 05:51:15;;;;;;;106.90;44.38;;;-0.50;99.90;;;;;;5036689;28;20492;-73
2022/12/10 05:53:41;;;;;;;88.15;38.10;;;-0.50;99.90;;;;;;5036581;28;20120;-73
2022/12/10 05:56:12;;;;;;;110.28;40.20;;;-0.40;99.90;;;;;;5054499;28;20029;-73
2022/12/10 05:58:39;;;;;;;97.38;40.80;;;-0.40;99.90;;;;;;5053976;28;20033;-73
2022/12/10 06:01:10;;;;;;;96.20;39.45;;;-0.40;99.90;;;;;;5036342;28;20029;-73
2022/12/10 06:03:36;;;;;;;90.95;39.88;;;-0.40;99.90;;;;;;5054415;28;20500;-73
2022/12/10 06:06:03;;;;;;;88.03;38.67;;;-0.40;99.90;;;;;;5053816;28;20032;-73
2022/12/10 06:08:28;;;;;;;102.22;39.50;;;-0.40;99.90;;;;;;5054818;28;20025;-73
2022/12/10 06:10:54;;;;;;;91.57;40.20;;;-0.40;99.90;;;;;;5036236;28;20025;-73
2022/12/10 06:13:19;;;;;;;83.15;37.38;;;-0.50;99.90;;;;;;5036230;28;20033;-73
2022/12/10 06:15:45;;;;;;;90.82;39.20;;;-0.40;99.90;;;;;;5054095;28;20064;-73
2022/12/10 06:18:11;;;;;;;94.30;39.10;;;-0.40;99.90;;;;;;5053657;28;20032;-73
2022/12/10 06:20:40;;;;;;;92.03;40.65;;;-0.50;99.90;;;;;;5036308;28;20543;-73
2022/12/10 06:23:06;;;;;;;97.93;40.55;;;-0.50;99.90;;;;;;5054046;28;20163;-73
2022/12/10 06:25:32;;;;;;;92.38;41.33;;;-0.40;99.90;;;;;;5054189;28;20499;-73
2022/12/10 06:27:58;;;;;;;96.07;41.85;;;-0.40;99.90;;;;;;5053458;28;20409;-74
2022/12/10 06:30:24;;;;;;;95.55;40.88;;;-0.50;99.90;;;;;;5054092;28;20021;-73
2022/12/10 06:32:49;;;;;;;86.28;36.88;;;-0.50;99.90;;;;;;5053877;28;20041;-73
2022/12/10 06:35:15;;;;;;;93.60;41.00;;;-0.40;99.90;;;;;;5036024;28;20021;-73
2022/12/10 06:37:40;;;;;;;91.68;38.50;;;-0.50;99.90;;;;;;5053493;28;20036;-73
2022/12/10 06:40:06;;;;;;;93.45;42.35;;;-0.50;99.90;;;;;;5035891;28;20025;-73
2022/12/10 06:42:32;;;;;;;94.50;42.47;;;-0.50;99.90;;;;;;5030016;28;20179;-73
2022/12/10 06:44:58;;;;;;;89.35;39.92;;;-0.50;99.90;;;;;;5034366;28;20072;-73
2022/12/10 06:47:26;;;;;;;93.93;39.00;;;-0.50;99.90;;;;;;5033750;28;20087;-73
2022/12/10 06:49:51;;;;;;;96.60;42.45;;;-0.50;99.90;;;;;;5033645;28;20051;-73
2022/12/10 06:52:17;;;;;;;88.70;39.47;;;-0.50;99.90;;;;;;5032665;28;20552;-73
2022/12/10 06:54:43;;;;;;;100.45;41.33;;;-0.50;99.90;;;;;;5033369;28;20036;-73
2022/12/10 06:57:08;;;;;;;86.25;37.90;;;-0.50;99.90;;;;;;5033666;28;20028;-73
2022/12/10 06:59:34;;;;;;;95.55;39.92;;;-0.50;99.90;;;;;;5033051;28;20097;-73
2022/12/10 07:01:59;;;;;;;90.95;38.65;;;-0.50;99.90;;;;;;5033769;28;20104;-73
2022/12/10 07:04:25;;;;;;;95.55;40.67;;;-0.50;99.90;;;;;;5015757;28;20017;-73
2022/12/10 07:06:50;;;;;;;88.55;38.67;;;-0.50;99.90;;;;;;5033749;28;20033;-73
2022/12/10 07:09:16;;;;;;;98.82;39.78;;;-0.40;99.90;;;;;;5044335;28;20025;-73
2022/12/10 07:11:42;;;;;;;101.25;42.88;;;-0.40;99.90;;;;;;5052534;28;20041;-73
2022/12/10 07:14:10;;;;;;;99.15;40.65;;;-0.50;99.90;;;;;;5053297;28;20025;-73
2022/12/10 07:16:37;;;;;;;104.32;42.58;;;-0.40;99.90;;;;;;5053207;28;20057;-73
2022/12/10 07:19:03;;;;;;;98.70;42.00;;;-0.40;99.90;;;;;;5053344;28;20022;-73
2022/12/10 07:21:34;;;;;;;94.57;38.97;;;-0.40;99.90;;;;;;5052686;28;20017;-73
2022/12/10 07:24:14;;;;;;;85.15;40.35;;;-0.40;99.90;;;;;;5053210;28;20117;-73
2022/12/10 07:26:42;;;;;;;92.97;38.92;;;-0.40;99.90;;;;;;5053254;28;20024;-73
2022/12/10 07:29:13;;;;;;;90.43;38.28;;;-0.40;99.90;;;;;;5052726;28;20047;-73
2022/12/10 07:31:38;;;;;;;96.35;40.70;;;-0.40;99.90;;;;;;5053355;28;20021;-73
2022/12/10 07:34:04;;;;;;;88.78;39.53;;;-0.40;99.90;;;;;;5053047;28;20392;-73
2022/12/10 07:36:30;;;;;;;90.57;39.92;;;-0.40;99.90;;;;;;5035185;28;20464;-73
2022/12/10 07:38:56;;;;;;;90.78;39.15;;;-0.40;99.90;;;;;;5052662;28;20053;-73
2022/12/10 07:41:23;;;;;;;94.57;39.50;;;-0.30;99.90;;;;;;5052971;28;20021;-73
2022/12/10 07:43:49;;;;;;;94.43;40.92;;;-0.30;99.90;;;;;;5053643;28;20436;-73
2022/12/10 07:46:23;;;;;;;86.90;37.38;;;-0.30;99.90;;;;;;5035133;28;20112;-73
2022/12/10 07:48:50;;;;;;;87.47;38.15;;;-0.30;99.90;;;;;;5053131;28;20025;-73
2022/12/10 07:51:17;;;;;;;90.97;38.67;;;-0.30;99.90;;;;;;5052297;28;20029;-73
2022/12/10 07:53:43;;;;;;;89.45;39.72;;;-0.30;99.90;;;;;;5052667;28;20120;-73
2022/12/10 07:56:09;;;;;;;97.00;41.55;;;-0.30;99.90;;;;;;5053102;28;20029;-73
2022/12/10 07:58:35;;;;;;;89.85;39.78;;;-0.30;99.90;;;;;;5052866;28;20021;-73
2022/12/10 08:01:08;;;;;;;79.32;35.25;;;-0.20;99.90;;;;;;5052574;28;20032;-73
2022/12/10 08:03:34;;;;;;;87.90;37.33;;;-0.20;99.90;;;;;;5053791;28;20021;-74
2022/12/10 08:06:01;;;;;;;87.13;37.30;;;-0.20;99.90;;;;;;5056593;28;20036;-73
2022/12/10 08:08:27;;;;;;;84.18;36.33;;;-0.20;99.90;;;;;;5056196;28;20025;-73
2022/12/10 08:10:54;;;;;;;75.32;36.30;;;-0.20;99.90;;;;;;5056699;28;20025;-73
2022/12/10 08:13:19;;;;;;;88.78;39.22;;;-0.20;99.90;;;;;;5113231;23;20409;-71
2022/12/10 08:15:45;;;;;;;90.13;40.30;;;-0.20;99.90;;;;;;5016588;28;20036;-71
2022/12/10 08:18:10;;;;;;;91.80;39.50;;;-0.20;99.90;;;;;;5016194;28;20026;-71
2022/12/10 08:20:36;;;;;;;89.95;39.08;;;-0.20;99.90;;;;;;5016052;28;20080;-71
2022/12/10 08:23:01;;;;;;;84.43;36.35;;;-0.20;99.90;;;;;;5015976;28;20022;-71
2022/12/10 08:25:27;;;;;;;86.13;38.30;;;-0.10;99.90;;;;;;5016340;28;20084;-72
2022/12/10 08:27:52;;;;;;;89.38;39.13;;;-0.10;99.90;;;;;;4999167;28;20041;-72
2022/12/10 08:30:18;;;;;;;88.75;38.00;;;-0.10;99.90;;;;;;5016494;28;20033;-72
2022/12/10 08:32:43;;;;;;;88.05;39.55;;;-0.10;99.90;;;;;;5016168;28;20033;-72
2022/12/10 08:35:09;;;;;;;88.25;38.92;;;0.00;99.90;;;;;;5015515;28;20030;-71
2022/12/10 08:37:34;;;;;;;82.90;37.53;;;0.00;99.90;;;;;;5016556;28;20417;-71
2022/12/10 08:40:00;;;;;;;86.50;39.65;;;0.00;99.90;;;;;;5016667;28;20400;-72
2022/12/10 08:42:25;;;;;;;89.75;39.70;;;0.00;99.90;;;;;;4989031;28;20034;-71
2022/12/10 08:44:51;;;;;;;87.60;37.83;;;0.00;99.90;;;;;;4995926;28;20072;-71
2022/12/10 08:47:16;;;;;;;89.93;39.30;;;0.00;99.90;;;;;;4996518;28;20026;-72
2022/12/10 08:49:42;;;;;;;88.15;37.45;;;0.00;99.90;;;;;;4996195;28;20037;-71
2022/12/10 08:52:08;;;;;;;88.15;38.97;;;0.00;99.90;;;;;;4996131;28;20096;-71
2022/12/10 08:54:33;;;;;;;85.15;39.10;;;0.10;99.90;;;;;;4994873;28;20030;-71
2022/12/10 08:56:59;;;;;;;85.82;37.97;;;0.10;99.90;;;;;;5006406;28;20025;-71
2022/12/10 08:59:24;;;;;;;87.45;39.03;;;0.10;99.90;;;;;;5015126;28;20030;-71
2022/12/10 09:01:51;;;;;;;90.18;38.97;;;0.10;99.90;;;;;;5015474;28;20021;-70
2022/12/10 09:04:17;;;;;;;87.65;41.42;;;0.10;99.90;;;;;;5015824;28;20029;-71
2022/12/10 09:06:42;;;;;;;86.20;37.58;;;0.10;99.90;;;;;;5015769;28;20096;-70
2022/12/10 09:09:08;;;;;;;91.65;41.83;;;0.20;99.90;;;;;;5015159;28;20026;-71
2022/12/10 09:11:34;;;;;;;93.07;40.63;;;0.20;99.90;;;;;;5014850;28;20084;-71
2022/12/10 09:14:00;;;;;;;95.07;41.35;;;0.20;99.90;;;;;;5015939;28;20389;-71
2022/12/10 09:16:31;;;;;;;96.30;41.08;;;0.20;99.90;;;;;;5014423;28;20030;-71
2022/12/10 09:18:57;;;;;;;93.35;41.53;;;0.30;99.90;;;;;;5014672;28;20393;-71
2022/12/10 09:21:22;;;;;;;88.55;40.50;;;0.30;99.90;;;;;;5015542;28;20022;-72
2022/12/10 09:23:50;;;;;;;90.35;40.50;;;0.30;99.90;;;;;;5015012;28;20037;-71
2022/12/10 09:26:16;;;;;;;87.18;40.55;;;0.30;99.90;;;;;;5015339;28;20026;-71
2022/12/10 09:28:42;;;;;;;91.20;39.55;;;0.30;99.90;;;;;;5015277;28;20508;-71
2022/12/10 09:31:09;;;;;;;83.95;40.28;;;0.40;99.90;;;;;;5014679;28;20085;-71
2022/12/10 09:33:35;;;;;;;79.18;37.95;;;0.40;99.90;;;;;;5015339;28;20029;-71
2022/12/10 09:36:05;;;;;;;92.85;40.65;;;0.50;99.90;;;;;;5014732;28;20026;-71
2022/12/10 09:38:30;;;;;;;84.22;38.13;;;0.50;99.90;;;;;;5015200;28;20053;-71
2022/12/10 09:41:00;;;;;;;82.10;40.25;;;0.50;99.90;;;;;;5014855;28;20049;-71
2022/12/10 09:43:47;;;;;;;83.90;39.20;;;0.50;99.90;;;;;;5014878;28;20018;-71
2022/12/10 09:46:44;;;;;;;88.22;39.83;;;0.40;99.90;;;;;;5014381;28;20370;-72
2022/12/10 09:49:19;;;;;;;84.35;39.75;;;0.50;99.90;;;;;;4995141;28;20393;-72
2022/12/10 09:51:45;;;;;;;85.03;37.63;;;0.50;99.90;;;;;;4995552;28;20018;-72
2022/12/10 09:54:19;;;;;;;95.28;40.83;;;0.50;99.90;;;;;;4994558;28;20134;-71
2022/12/10 09:56:45;;;;;;;79.50;37.15;;;0.50;99.90;;;;;;4995266;28;20041;-71
2022/12/10 09:59:41;;;;;;;78.88;37.90;;;0.50;99.90;;;;;;5010440;28;20381;-71
2022/12/10 10:02:26;;;;;;;76.47;35.25;;;0.50;99.90;;;;;;4998064;28;20030;-70
2022/12/10 10:05:14;;;;;;;81.68;36.35;;;0.60;99.90;;;;;;5013978;28;20041;-71
2022/12/10 10:07:51;;;;;;;83.00;38.15;;;0.60;99.90;;;;;;5000516;28;20064;-71
2022/12/10 10:10:25;;;;;;;79.10;37.75;;;0.60;99.90;;;;;;5014465;28;20025;-71
2022/12/10 10:13:01;;;;;;;78.25;36.50;;;0.70;99.90;;;;;;5013985;28;20044;-71
2022/12/10 10:15:32;;;;;;;80.72;37.85;;;0.70;99.90;;;;;;5014107;28;20080;-71
2022/12/10 10:18:08;;;;;;;78.22;37.60;;;0.70;99.90;;;;;;5013876;28;20030;-72
2022/12/10 10:20:35;;;;;;;84.45;37.45;;;0.70;99.90;;;;;;5014230;28;20030;-71
2022/12/10 10:23:00;;;;;;;76.75;35.42;;;0.80;99.90;;;;;;5014282;28;20022;-71
2022/12/10 10:25:27;;;;;;;81.45;38.13;;;0.70;99.90;;;;;;5014210;28;20036;-71
2022/12/10 10:27:53;;;;;;;78.32;35.28;;;0.70;99.90;;;;;;5014337;28;20030;-71
2022/12/10 10:30:22;;;;;;;81.68;37.63;;;0.80;99.90;;;;;;5013508;28;20033;-71
2022/12/10 10:32:53;;;;;;;81.68;37.05;;;0.80;99.90;;;;;;5013955;28;20033;-71
2022/12/10 10:35:32;;;;;;;72.88;35.17;;;0.80;99.90;;;;;;4976834;28;20218;-71
2022/12/10 10:38:13;;;;;;;79.22;36.25;;;0.80;99.90;;;;;;4994370;28;20019;-71
2022/12/10 10:40:42;;;;;;;77.30;35.72;;;0.80;99.90;;;;;;4994350;28;20030;-71
2022/12/10 10:43:23;;;;;;;69.32;36.03;;;0.90;99.90;;;;;;4994738;28;20018;-71
2022/12/10 10:45:58;;;;;;;71.93;34.95;;;0.90;99.90;;;;;;5006698;28;20056;-71
2022/12/10 10:48:25;;;;;;;79.00;34.60;;;1.00;99.90;;;;;;5013982;28;20113;-71
2022/12/10 10:51:16;;;;;;;80.65;36.10;;;1.00;99.90;;;;;;5012879;28;20034;-71
2022/12/10 10:53:45;;;;;;;69.43;35.00;;;1.00;99.90;;;;;;5002633;28;20548;-71
2022/12/10 10:56:16;;;;;;;74.93;34.25;;;1.00;99.90;;;;;;5013497;28;20562;-71
2022/12/10 10:59:06;;;;;;;71.07;33.95;;;0.90;99.90;;;;;;4995760;28;20053;-71
2022/12/10 11:01:50;;;;;;;66.05;33.65;;;0.90;99.90;;;;;;4993897;28;20589;-71
2022/12/10 11:04:28;;;;;;;63.30;31.38;;;0.90;99.90;;;;;;4993633;28;20402;-71
2022/12/10 11:06:56;;;;;;;72.43;33.75;;;0.90;99.90;;;;;;4993928;28;20100;-71
2022/12/10 11:09:28;;;;;;;73.70;35.30;;;0.90;99.90;;;;;;4993892;28;20019;-71
2022/12/10 11:12:03;;;;;;;73.22;34.28;;;1.00;99.90;;;;;;5006252;28;20474;-71
2022/12/10 11:14:40;;;;;;;68.40;32.75;;;0.90;99.90;;;;;;5013429;28;20053;-72
2022/12/10 11:17:09;;;;;;;65.55;32.17;;;0.90;99.90;;;;;;5013082;28;20512;-71
2022/12/10 11:19:34;;;;;;;63.65;31.73;;;0.90;99.90;;;;;;5013538;28;20061;-70
2022/12/10 11:22:26;;;;;;;62.03;29.63;;;0.90;99.90;;;;;;5013251;28;20056;-70
2022/12/10 11:24:52;;;;;;;56.25;29.02;;;1.00;99.90;;;;;;5013575;28;20026;-70
2022/12/10 11:27:45;;;;;;;57.63;28.92;;;1.00;99.90;;;;;;5013434;28;20088;-69
2022/12/10 11:30:17;;;;;;;56.58;28.45;;;0.90;99.90;;;;;;5013461;28;20026;-70
2022/12/10 11:33:15;;;;;;;64.85;30.75;;;1.00;99.90;;;;;;5013523;28;20022;-70
2022/12/10 11:35:54;;;;;;;53.63;27.63;;;1.00;99.90;;;;;;4966189;28;20535;-69
2022/12/10 11:38:57;;;;;;;51.80;26.05;;;1.00;99.90;;;;;;5012892;28;20026;-70
2022/12/10 11:42:00;;;;;;;59.88;28.77;;;1.10;99.90;;;;;;4987900;28;20052;-70
2022/12/10 11:44:47;;;;;;;51.15;24.80;;;1.10;99.90;;;;;;4889620;28;2102735;-72
2022/12/10 11:47:21;;;;;;;49.13;26.05;;;1.20;99.90;;;;;;4957826;29;20062;-69
2022/12/10 11:50:01;;;;;;;50.97;26.20;;;1.20;99.90;;;;;;4958619;29;20470;-70
2022/12/10 11:52:44;;;;;;;57.88;26.58;;;1.20;99.90;;;;;;4958474;28;20446;-70
2022/12/10 11:55:30;;;;;;;43.88;25.10;;;1.10;99.90;;;;;;4958414;29;20487;-71
2022/12/10 11:58:33;;;;;;;52.38;25.83;;;1.10;99.90;;;;;;4958166;29;20557;-70
2022/12/10 12:01:21;;;;;;;58.42;29.40;;;1.00;99.90;;;;;;4958622;28;20034;-70
2022/12/10 12:04:19;;;;;;;55.17;27.30;;;0.90;99.90;;;;;;4957690;28;20031;-70
2022/12/10 12:06:57;;;;;;;52.55;27.00;;;0.90;99.90;;;;;;4958828;29;20035;-70
2022/12/10 12:09:34;;;;;;;55.65;26.45;;;0.90;99.90;;;;;;4958489;29;20027;-70
2022/12/10 12:12:18;;;;;;;62.78;29.90;;;1.00;99.90;;;;;;4958157;28;20398;-70
2022/12/10 12:14:48;;;;;;;65.03;30.17;;;1.00;99.90;;;;;;4957557;29;20031;-70
2022/12/10 12:17:23;;;;;;;60.05;27.67;;;0.90;99.90;;;;;;4958290;29;20035;-70
2022/12/10 12:20:02;;;;;;;53.95;27.13;;;1.00;99.90;;;;;;4958601;29;20027;-71
2022/12/10 12:22:36;;;;;;;67.75;28.70;;;1.00;99.90;;;;;;4958002;28;20468;-70
2022/12/10 12:25:05;;;;;;;;;;;1.00;99.90;;;;;;4957941;29;20549;-70
2022/12/10 12:27:40;;;;;;;50.55;25.77;;;1.00;99.90;;;;;;4957850;29;19906;-70
2022/12/10 12:30:22;;;;;;;54.33;24.40;;;1.00;99.90;;;;;;4957875;28;20074;-70
2022/12/10 12:32:53;;;;;;;47.08;25.60;;;0.90;99.90;;;;;;4957717;28;20023;-70
2022/12/10 12:35:41;;;;;;;51.50;25.70;;;0.90;99.90;;;;;;4957628;29;20399;-70
2022/12/10 12:38:22;;;;;;;54.38;25.45;;;0.90;99.90;;;;;;4957923;29;20031;-70
2022/12/10 12:40:53;;;;;;;52.55;25.25;;;1.00;99.90;;;;;;4957662;29;20051;-70
2022/12/10 12:43:33;;;;;;;51.78;26.75;;;1.00;99.90;;;;;;4957528;28;20051;-70
2022/12/10 12:45:59;;;;;;;56.53;27.02;;;1.00;99.90;;;;;;4957525;29;20403;-70
2022/12/10 12:49:00;;;;;;;46.88;25.38;;;1.00;99.90;;;;;;4956963;29;20027;-70
2022/12/10 12:51:41;;;;;;;50.90;26.08;;;0.90;99.90;;;;;;4954349;28;20078;-70
2022/12/10 12:54:10;;;;;;;52.15;26.40;;;0.90;99.90;;;;;;4957428;29;20024;-70